Songa Opal — V7RO5 — position and weather

sailwx.info

Track history (hours):
 
Tides and Currents Weather Stations Pressure Air Temp Water Temp Dewpoint Dewpoint Depression Visibility Wind Speed Wind Dir Waves Ship Positions

Songa Opal

Last reported at 2018-Feb-07 08:19 UTC. Time now 2018-Feb-21 19:30 UTC.
Position N 31°25' E 121°31'.
Warning: this ship's position is 14 days out of date.

Length 148 m; draft 7.8 m.

Type: Ship. MMSI: 538003550.

Date/timePositionNaut miles runAvg speedWind from/ knotsBaromVisibWave heightAir tempDewpointWater temp
2018-Feb-07 08:19N 31°25' E 121°31'2 6.3
2018-Feb-07 07:58N 31°26' E 121°29'4 9.4
2018-Feb-07 07:30N 31°30' E 121°25'611.5
2018-Feb-07 07:00N 31°33' E 121°20'611.8
2018-Feb-07 06:30N 31°37' E 121°16'713.6
2018-Feb-07 06:00N 31°42' E 121°09'713.3
2018-Feb-07 05:28N 31°46' E 121°03'2910.6
2018-Feb-07 02:41N 32°03' E 120°34'2 9.4
2018-Feb-07 02:28N 32°04' E 120°32'33 0.8
2018-Feb-05 07:45N 31°46' E 121°04'312.8
2018-Feb-05 07:30N 31°44' E 121°07'612.1
2018-Feb-05 07:00N 31°40' E 121°13'612.8
2018-Feb-05 06:30N 31°35' E 121°18'1111.4
2018-Feb-05 05:31N 31°28' E 121°28'5 8.1
2018-Feb-05 04:57N 31°25' E 121°32'  
Track history (hours):
 
Tides and Currents Weather Stations Pressure Air Temp Water Temp Dewpoint Dewpoint Depression Visibility Wind Speed Wind Dir Waves Ship Positions

Songa Opal

Last reported at 2018-Feb-07 08:19 UTC. Time now 2018-Feb-21 19:30 UTC.
Position N 31°25' E 121°31'.
Warning: this ship's position is 14 days out of date.

Length 148 m; draft 7.8 m.

Type: Ship. MMSI: 538003550.

Date/timePositionNaut miles runAvg speedWind from/ knotsBaromVisibWave heightAir tempDewpointWater temp
2018-Feb-07 08:19N 31°25' E 121°31'2 6.3
2018-Feb-07 07:58N 31°26' E 121°29'4 9.4
2018-Feb-07 07:30N 31°30' E 121°25'611.5
2018-Feb-07 07:00N 31°33' E 121°20'611.8
2018-Feb-07 06:30N 31°37' E 121°16'713.6
2018-Feb-07 06:00N 31°42' E 121°09'713.3
2018-Feb-07 05:28N 31°46' E 121°03'2910.6
2018-Feb-07 02:41N 32°03' E 120°34'2 9.4
2018-Feb-07 02:28N 32°04' E 120°32'33 0.8
2018-Feb-05 07:45N 31°46' E 121°04'312.8
2018-Feb-05 07:30N 31°44' E 121°07'612.1
2018-Feb-05 07:00N 31°40' E 121°13'612.8
2018-Feb-05 06:30N 31°35' E 121°18'1111.4
2018-Feb-05 05:31N 31°28' E 121°28'5 8.1
2018-Feb-05 04:57N 31°25' E 121°32'  

Dump ship's entire track history